Hauptseite
METAR-TAF:

METAR-TAF

Flughäfen :

Kosrae, Mikronesien

Flughafen Kosrae

Breite: 05-21N, Länge: 162-57E, Höhe: 3 m

Beobachtung

Neuester Wetterbericht von vor 11 Stunden und 56 Minuten, um 01:50 UTC
Wind 6 kt aus Südost
Temperatur 29°C
Luftfeuchtigkeit 74%
Luftdruck 1008 hPa
Sichtweite: 16.1 km
Aufgelockert bewölkt in der Höhe von 1800 ft
Durchbrochene Bewölkung in der Höhe von 13000 ft
Durchbrochene Bewölkung in der Höhe von 30000 ft

METAR: PTSA 280150Z 13006KT 10SM SCT018 BKN130 BKN300 29/24 A2978 RMK LAST

Zeit: 00:46 (13:46 UTC)

Prognose

Neuester Wetterbericht von vor 14 Stunden und 15 Minuten, um 23:31 UTC
Gültige Prognose vom 28 um 00 UTC bis 28 um 24 UTC
Wind 8 kt aus Ost
Sichtweite: 10 km
Aufgelockert bewölkt in der Höhe von 1600 ft
Durchbrochene Bewölkung in der Höhe von 13000 ft
Schauer in der Nähe

TAF: PTSA 272331Z 2800/2824 10008KT P6SM VCSH SCT016 BKN130

Wetterbeobachtungen und Prognosen von mehr als 4000 Flughäfen (METAR und TAF Bericht).

Die verfügbaren Stationen werden durch gelbe und rote Markierungen auf der Karte dargestellt.

Führen Sie die Maus auf sie, um den Namen der Station zu sehen.

Darauf klicken, um die Beobachtung von Wetterbeobachtungen und Prognosen zu sehen.

Um die Karte zu ändern : klicken Sie auf den grünen Tasten mit einem schwarzen Kreuz Zum Vergrößern, auf den grünen Button mit einem Gedankenstrich zu verkleinern, oder auf die grünen Pfeile für benachbarte Karten.


METAR-TAF: